Pagina principale
METAR-TAF:

METAR-TAF

Aeroporti :

Alpnach, Svizzera

latitudine: 46-56-19N, longitudine: 8-17-03E, altezza: 440 m

Osservazione

Il bollettino è stato emesso 22 minuti fa, alle 11:20 UTC
Vento 17 kt da sud con raffiche fino a 27 kt
Temperature 4°C
Umidità 81%
Pressione 1008 hPa
Visibilità 10 km o più
Cielo coperto ad un'altezza di 2200 ft
rovesci di pioggia

METAR: LSMA 281120Z AUTO 19017G27KT 9999NDV -SHRA OVC022 04/01 Q1008 RMK

Ora: 12:42 (11:42 UTC)


TAF: mancante

Osservazioni e previsioni meteorologiche di più di 4000 aeroporti (messaggi METAR e TAF).

Le stazioni disponibili sono rappresentate dai dischi gialli e rossi sulla carta.

Puntare il mouse per vedere il nome della stazione.

Clicca sopra per visualizzare le osservazioni e previsioni meteorologiche.

Per cambiare la mappa : fare clic sui pulsanti verdi con una croce nera per ingrandire, il pulsante verde con un trattino per diminuire, o sulla freccia verde per le mappe adiacenti.


METAR-TAF: